This is the latest recevied weather packets stored in our database for station/object E24YPM-1. If no packets are shown the sender has not sent any weather packets the latest 10 day(s).
| Time | Temp. | Humidity | Pressure | Rain* | Wind** | Luminosity | Snow |
|---|---|---|---|---|---|---|---|
| 1777743114 | 31.11° C | 29% | 1003 hPa | - | - | 0 W/m² | - |
| 1777742201 | 31.11° C | 29% | 1003 hPa | - | - | 0 W/m² | - |
| 1777741288 | 31.67° C | 28% | 1003 hPa | - | - | 0 W/m² | - |
| 1777740373 | 31.67° C | 29% | 1004 hPa | - | - | 0 W/m² | - |
| 1777739459 | 31.67° C | 29% | 1004 hPa | - | - | 0 W/m² | - |
| 1777738546 | 31.11° C | 29% | 1004 hPa | - | - | 0 W/m² | - |
| 1777737644 | 31.67° C | 30% | 1003 hPa | - | - | 0 W/m² | - |
| 1777736718 | 31.67° C | 30% | 1003 hPa | - | - | 0 W/m² | - |
| 1777735803 | 31.67° C | 31% | 1003 hPa | - | - | 0 W/m² | - |
| 1777734889 | 31.11° C | 32% | 1003 hPa | - | - | 0 W/m² | - |
| 1777733976 | 31.11° C | 33% | 1003 hPa | - | - | 0 W/m² | - |
| 1777733061 | 31.67° C | 33% | 1002 hPa | - | - | 0 W/m² | - |
| 1777732149 | 31.67° C | 33% | 1002 hPa | - | - | 0 W/m² | - |
| 1777731236 | 32.22° C | 33% | 1002 hPa | - | - | 0 W/m² | - |
| 1777730319 | 32.22° C | 34% | 1002 hPa | - | - | 0 W/m² | - |
| 1777729407 | 32.78° C | 36% | 1001 hPa | - | - | 0 W/m² | - |
| 1777728495 | 33.33° C | 39% | 1001 hPa | - | - | 0 W/m² | - |
| 1777727565 | 34.44° C | 44% | 1001 hPa | - | - | 0 W/m² | - |
| 1777726658 | 35.56° C | 49% | 1001 hPa | - | - | 0 W/m² | - |
| 1777725736 | 35.56° C | 49% | 1000 hPa | - | - | 0 W/m² | - |
| 1777724896 | 35.56° C | 48% | 1000 hPa | - | - | 0 W/m² | - |
| 1777723904 | 35.56° C | 48% | 1000 hPa | - | - | 0 W/m² | - |
| 1777722995 | 35.56° C | 48% | 1000 hPa | - | - | 0 W/m² | - |
| 1777722072 | 35.56° C | 47% | 999 hPa | - | - | 0 W/m² | - |
| 1777721159 | 36.11° C | 47% | 999 hPa | - | - | 0 W/m² | - |
* Rain since midnight (hover to see other rain measurements)
** Current wind speed in m/s (hover to see current wind gust speed)